JST112 NCRG-YSSY
Flight info
| Callsign | JST112 |
|---|---|
| Flight time | N/A |
| Altitude | 30000 |
| Route | TOKET1P BIXIT G594 OVTOS DCT ODUTI/N0444F320 G595 MUGEN/N0451F340 G595 SARAP DCT MARLN |
| Aircraft | A21N/M-SDE2E3FGHIJ1RWXY/LB1 |
Departure
| Time | N/A |
|---|---|
| Airport | Rarotonga International Airport (NCRG) |
Arrival
| Time | 2026-05-07 05:33 |
|---|---|
| Airport | Sydney Kingsford Smith International Airport (YSSY) |
| Time | Latitude | Longitude | Altitude | Speed | Heading |
|---|---|---|---|---|---|
| 2026-05-07 04:57 | -33.87199 | 154.50020 | 34987 ft | 408 kts | 268° |
| 2026-05-07 04:58 | -33.87725 | 154.43213 | 34993 ft | 408 kts | 268° |
| 2026-05-07 04:58 | -33.88237 | 154.36425 | 34991 ft | 407 kts | 268° |
| 2026-05-07 04:59 | -33.88750 | 154.29637 | 34993 ft | 407 kts | 268° |
| 2026-05-07 04:59 | -33.89258 | 154.22851 | 34999 ft | 407 kts | 268° |
| 2026-05-07 05:00 | -33.89770 | 154.16068 | 35007 ft | 407 kts | 268° |
| 2026-05-07 05:00 | -33.90300 | 154.09286 | 35006 ft | 407 kts | 268° |
| 2026-05-07 05:01 | -33.90807 | 154.02499 | 35005 ft | 407 kts | 268° |
| 2026-05-07 05:01 | -33.91294 | 153.95716 | 35002 ft | 407 kts | 268° |
| 2026-05-07 05:02 | -33.91783 | 153.88923 | 35006 ft | 407 kts | 268° |
| 2026-05-07 05:02 | -33.92266 | 153.82137 | 35000 ft | 407 kts | 268° |
| 2026-05-07 05:03 | -33.92746 | 153.75350 | 34995 ft | 407 kts | 268° |
| 2026-05-07 05:03 | -33.93219 | 153.68557 | 35001 ft | 407 kts | 268° |
| 2026-05-07 05:04 | -33.93705 | 153.61775 | 35002 ft | 407 kts | 268° |
| 2026-05-07 05:04 | -33.94181 | 153.54991 | 35000 ft | 406 kts | 268° |
| 2026-05-07 05:05 | -33.94650 | 153.48234 | 35005 ft | 402 kts | 269° |
| 2026-05-07 05:05 | -33.95103 | 153.41597 | 34179 ft | 397 kts | 269° |
| 2026-05-07 05:06 | -33.95327 | 153.38296 | 33299 ft | 402 kts | 269° |
| 2026-05-07 05:06 | -33.95549 | 153.34947 | 32694 ft | 399 kts | 269° |
| 2026-05-07 05:06 | -33.95770 | 153.31632 | 32163 ft | 395 kts | 269° |
| 2026-05-07 05:06 | -33.95986 | 153.28354 | 31643 ft | 390 kts | 269° |
| 2026-05-07 05:07 | -33.96206 | 153.25122 | 31136 ft | 385 kts | 269° |
| 2026-05-07 05:07 | -33.96417 | 153.21926 | 30631 ft | 380 kts | 269° |
| 2026-05-07 05:07 | -33.96618 | 153.18771 | 30151 ft | 375 kts | 270° |
| 2026-05-07 05:07 | -33.96813 | 153.15659 | 29665 ft | 370 kts | 270° |
| 2026-05-07 05:08 | -33.97010 | 153.12584 | 29162 ft | 366 kts | 269° |
| 2026-05-07 05:08 | -33.97208 | 153.09548 | 28671 ft | 362 kts | 269° |
| 2026-05-07 05:08 | -33.97399 | 153.06543 | 28190 ft | 358 kts | 270° |
| 2026-05-07 05:08 | -33.97591 | 153.03576 | 27721 ft | 353 kts | 269° |
| 2026-05-07 05:09 | -33.97782 | 153.00642 | 27254 ft | 349 kts | 269° |
| 2026-05-07 05:09 | -33.97970 | 152.97744 | 26769 ft | 345 kts | 269° |
| 2026-05-07 05:09 | -33.98156 | 152.94873 | 26291 ft | 342 kts | 269° |
| 2026-05-07 05:09 | -33.98349 | 152.92034 | 25842 ft | 338 kts | 269° |
| 2026-05-07 05:10 | -33.98540 | 152.89233 | 25403 ft | 334 kts | 269° |
| 2026-05-07 05:10 | -33.98722 | 152.86453 | 24967 ft | 332 kts | 269° |
| 2026-05-07 05:10 | -33.98896 | 152.83686 | 24502 ft | 331 kts | 270° |
| 2026-05-07 05:10 | -33.99067 | 152.80921 | 24043 ft | 330 kts | 270° |
| 2026-05-07 05:11 | -33.99238 | 152.78164 | 23586 ft | 330 kts | 270° |
| 2026-05-07 05:11 | -33.99410 | 152.75413 | 23145 ft | 328 kts | 269° |
| 2026-05-07 05:11 | -33.99582 | 152.72679 | 22699 ft | 327 kts | 269° |
| 2026-05-07 05:11 | -33.99754 | 152.69947 | 22241 ft | 326 kts | 269° |
| 2026-05-07 05:12 | -33.99921 | 152.67226 | 21779 ft | 325 kts | 269° |
| 2026-05-07 05:12 | -34.00088 | 152.64509 | 21316 ft | 325 kts | 270° |
| 2026-05-07 05:12 | -34.00257 | 152.61800 | 20857 ft | 324 kts | 270° |
| 2026-05-07 05:12 | -34.00425 | 152.59096 | 20416 ft | 323 kts | 270° |
| 2026-05-07 05:13 | -34.00587 | 152.56439 | 19995 ft | 322 kts | 270° |
| 2026-05-07 05:13 | -34.00751 | 152.53758 | 19574 ft | 320 kts | 270° |
| 2026-05-07 05:13 | -34.00912 | 152.51085 | 19153 ft | 320 kts | 270° |
| 2026-05-07 05:13 | -34.01077 | 152.48380 | 18735 ft | 319 kts | 270° |
| 2026-05-07 05:14 | -34.01234 | 152.45750 | 18336 ft | 319 kts | 270° |
| 2026-05-07 05:14 | -34.01392 | 152.43088 | 17937 ft | 319 kts | 270° |
| 2026-05-07 05:14 | -34.01553 | 152.40442 | 17536 ft | 314 kts | 270° |
| 2026-05-07 05:14 | -34.01708 | 152.37833 | 17130 ft | 310 kts | 270° |
| 2026-05-07 05:15 | -34.01862 | 152.35262 | 16748 ft | 305 kts | 270° |
| 2026-05-07 05:15 | -34.02014 | 152.32732 | 16374 ft | 300 kts | 270° |
| 2026-05-07 05:15 | -34.02161 | 152.30241 | 16015 ft | 296 kts | 270° |
| 2026-05-07 05:15 | -34.02305 | 152.27790 | 15659 ft | 291 kts | 270° |
| 2026-05-07 05:16 | -34.02446 | 152.25371 | 15315 ft | 289 kts | 270° |
| 2026-05-07 05:16 | -34.02587 | 152.22950 | 14956 ft | 290 kts | 270° |
| 2026-05-07 05:16 | -34.02727 | 152.20523 | 14597 ft | 290 kts | 270° |
| 2026-05-07 05:16 | -34.02867 | 152.18095 | 14240 ft | 291 kts | 269° |
| 2026-05-07 05:17 | -34.03008 | 152.15664 | 13885 ft | 291 kts | 269° |
| 2026-05-07 05:17 | -34.03149 | 152.13230 | 13527 ft | 291 kts | 269° |
| 2026-05-07 05:17 | -34.03290 | 152.10793 | 13169 ft | 291 kts | 269° |
| 2026-05-07 05:17 | -34.03429 | 152.08354 | 12814 ft | 292 kts | 269° |
| 2026-05-07 05:18 | -34.03454 | 152.05920 | 12456 ft | 290 kts | 277° |
| 2026-05-07 05:18 | -34.03235 | 152.03509 | 12102 ft | 289 kts | 279° |
| 2026-05-07 05:18 | -34.02985 | 152.01108 | 11746 ft | 289 kts | 279° |
| 2026-05-07 05:18 | -34.02736 | 151.98703 | 11388 ft | 289 kts | 279° |
| 2026-05-07 05:19 | -34.02491 | 151.96292 | 11030 ft | 290 kts | 278° |
| 2026-05-07 05:19 | -34.02247 | 151.93878 | 10656 ft | 290 kts | 278° |
| 2026-05-07 05:19 | -34.02001 | 151.91470 | 10310 ft | 289 kts | 278° |
| 2026-05-07 05:19 | -34.01758 | 151.89057 | 9962 ft | 291 kts | 277° |
| 2026-05-07 05:20 | -34.01522 | 151.86711 | 9718 ft | 284 kts | 277° |
| 2026-05-07 05:20 | -34.01284 | 151.84367 | 9497 ft | 276 kts | 277° |
| 2026-05-07 05:20 | -34.01048 | 151.82079 | 9087 ft | 275 kts | 277° |
| 2026-05-07 05:20 | -34.00813 | 151.79790 | 8675 ft | 275 kts | 277° |
| 2026-05-07 05:21 | -34.00452 | 151.77535 | 8283 ft | 274 kts | 288° |
| 2026-05-07 05:21 | -33.98828 | 151.73423 | 7589 ft | 269 kts | 295° |
| 2026-05-07 05:21 | -33.97991 | 151.71422 | 7251 ft | 266 kts | 295° |
| 2026-05-07 05:22 | -33.97165 | 151.69431 | 6919 ft | 266 kts | 295° |
| 2026-05-07 05:22 | -33.96339 | 151.67436 | 6573 ft | 267 kts | 295° |
| 2026-05-07 05:22 | -33.95515 | 151.65450 | 6246 ft | 263 kts | 295° |
| 2026-05-07 05:22 | -33.94703 | 151.63486 | 5911 ft | 261 kts | 294° |
| 2026-05-07 05:23 | -33.93901 | 151.61539 | 5581 ft | 258 kts | 294° |
| 2026-05-07 05:23 | -33.93104 | 151.59610 | 5259 ft | 257 kts | 294° |
| 2026-05-07 05:23 | -33.92308 | 151.57684 | 4937 ft | 257 kts | 294° |
| 2026-05-07 05:23 | -33.91510 | 151.55752 | 4604 ft | 258 kts | 294° |
| 2026-05-07 05:24 | -33.90722 | 151.53830 | 4355 ft | 252 kts | 294° |
| 2026-05-07 05:24 | -33.89962 | 151.51978 | 4219 ft | 242 kts | 294° |
| 2026-05-07 05:24 | -33.89242 | 151.50211 | 4094 ft | 229 kts | 293° |
| 2026-05-07 05:24 | -33.88394 | 151.48655 | 3954 ft | 219 kts | 309° |
| 2026-05-07 05:25 | -33.87218 | 151.47578 | 3800 ft | 211 kts | 335° |
| 2026-05-07 05:25 | -33.85840 | 151.47099 | 3659 ft | 199 kts | 342° |
| 2026-05-07 05:25 | -33.84547 | 151.46754 | 3607 ft | 183 kts | 343° |
| 2026-05-07 05:25 | -33.83341 | 151.46449 | 3494 ft | 174 kts | 343° |
| 2026-05-07 05:26 | -33.82160 | 151.46154 | 3373 ft | 173 kts | 342° |
| 2026-05-07 05:26 | -33.81143 | 151.45506 | 3232 ft | 163 kts | 306° |
| 2026-05-07 05:26 | -33.80769 | 151.44283 | 3096 ft | 157 kts | 268° |
| 2026-05-07 05:26 | -33.80923 | 151.42995 | 2982 ft | 156 kts | 248° |
| 2026-05-07 05:27 | -33.81623 | 151.42004 | 2970 ft | 160 kts | 216° |
| 2026-05-07 05:27 | -33.82651 | 151.41452 | 2991 ft | 162 kts | 206° |
| 2026-05-07 05:27 | -33.83689 | 151.40925 | 2995 ft | 162 kts | 208° |
| 2026-05-07 05:27 | -33.84721 | 151.40373 | 3004 ft | 162 kts | 208° |
| 2026-05-07 05:28 | -33.85749 | 151.39819 | 3005 ft | 162 kts | 208° |
| 2026-05-07 05:28 | -33.86773 | 151.39262 | 3003 ft | 162 kts | 208° |
| 2026-05-07 05:28 | -33.87800 | 151.38701 | 2996 ft | 162 kts | 208° |
| 2026-05-07 05:28 | -33.88822 | 151.38131 | 2999 ft | 161 kts | 212° |
| 2026-05-07 05:29 | -33.89563 | 151.37196 | 2984 ft | 157 kts | 248° |
| 2026-05-07 05:29 | -33.89862 | 151.35941 | 2883 ft | 156 kts | 257° |
| 2026-05-07 05:29 | -33.90106 | 151.34668 | 2696 ft | 156 kts | 256° |
| 2026-05-07 05:29 | -33.90365 | 151.33415 | 2495 ft | 156 kts | 256° |
| 2026-05-07 05:30 | -33.90648 | 151.32150 | 2292 ft | 157 kts | 254° |
| 2026-05-07 05:30 | -33.90939 | 151.30904 | 2114 ft | 152 kts | 254° |
| 2026-05-07 05:30 | -33.91227 | 151.29682 | 1905 ft | 150 kts | 254° |
| 2026-05-07 05:30 | -33.91508 | 151.28491 | 1706 ft | 147 kts | 254° |
| 2026-05-07 05:31 | -33.91786 | 151.27314 | 1511 ft | 141 kts | 254° |
| 2026-05-07 05:31 | -33.92044 | 151.26223 | 1302 ft | 133 kts | 254° |
| 2026-05-07 05:31 | -33.92296 | 151.25160 | 1123 ft | 131 kts | 253° |
| 2026-05-07 05:31 | -33.92547 | 151.24098 | 952 ft | 133 kts | 254° |
| 2026-05-07 05:32 | -33.92799 | 151.23032 | 777 ft | 132 kts | 254° |
| 2026-05-07 05:32 | -33.93051 | 151.21965 | 601 ft | 132 kts | 253° |
| 2026-05-07 05:32 | -33.93302 | 151.20899 | 426 ft | 132 kts | 253° |
| 2026-05-07 05:32 | -33.93551 | 151.19847 | 254 ft | 130 kts | 253° |
| 2026-05-07 05:33 | -33.93795 | 151.18808 | 66 ft | 128 kts | 253° |
| 2026-05-07 05:33 | -33.94032 | 151.17811 | 34 ft | 112 kts | 254° |
| 2026-05-07 05:33 | -33.94193 | 151.17127 | 34 ft | 66 kts | 253° |
| 2026-05-07 05:33 | -33.94280 | 151.16756 | 31 ft | 32 kts | 253° |
| 2026-05-07 05:34 | -33.94330 | 151.16555 | 31 ft | 23 kts | 254° |
| 2026-05-07 05:34 | -33.94357 | 151.16434 | 30 ft | 12 kts | 263° |
| 2026-05-07 05:34 | -33.94332 | 151.16369 | 30 ft | 8 kts | 331° |
| 2026-05-07 05:34 | -33.94267 | 151.16335 | 34 ft | 12 kts | 343° |
| 2026-05-07 05:35 | -33.94194 | 151.16309 | 35 ft | 8 kts | 345° |
| 2026-05-07 05:35 | -33.94137 | 151.16289 | 35 ft | 9 kts | 347° |
| 2026-05-07 05:35 | -33.94068 | 151.16275 | 35 ft | 11 kts | 358° |
| 2026-05-07 05:35 | -33.94011 | 151.16292 | 34 ft | 7 kts | 43° |
| 2026-05-07 05:36 | -33.93999 | 151.16358 | 36 ft | 8 kts | 85° |
| 2026-05-07 05:36 | -33.93995 | 151.16398 | 35 ft | 2 kts | 83° |
| 2026-05-07 05:36 | -33.93995 | 151.16401 | 35 ft | 0 kts | 83° |
| 2026-05-07 05:40 | -33.93995 | 151.16400 | 36 ft | 0 kts | 83° |